Impacts TAF Board
For situational awareness. Not to be used for flight planning purposes.
IDs:

KTPA - Tampa Intl Arpt, FL, US

Issued at 1736 UTC 22 Sep 2018
Updated at 1825 UTC 22 Sep 2018
Potential Impact None Slight Moderate High
Time1753Z 22/19Z 22/20Z 22/21Z 22/22Z 22/23Z 23/00Z 23/01Z 23/02Z 23/03Z 23/04Z 23/05Z 23/06Z 23/07Z>>
Type OBS PRVL PRVL PRVL PRVL PRVL PRVL PRVL PRVL PRVL PRVL PRVL PRVL PRVL
VIS 10 >6 >6 >6 >6 >6 >6 >6 >6 >6 >6 >6 >6 >6
CIG 250 -- -- -- -- -- -- -- -- 200 200 200 200 200
Cover BKN SCT SCT SCT SCT SCT SCT SCT SCT BKN BKN BKN BKN BKN
FltCat VFR VFR VFR VFR VFR VFR VFR VFR VFR VFR VFR VFR VFR VFR
WX -- VCTS VCTS VCTS VCTS VCTS VCTS VCTS VCTS -- -- -- -- --
WDir 70 70 70 70 70 70 70 70 70 VRB VRB VRB VRB VRB
WSpd 6 6 6 6 6 6 6 6 6 4 4 4 4 4
WGst -- -- -- -- -- -- -- -- -- -- -- -- -- --
Raw TAF
KTPA 221736Z 2218/2324 07006KT P6SM VCTS FEW035CB SCT150
  FM230300 VRB04KT P6SM SCT025 BKN200
  FM231800 14005KT P6SM VCTS BKN060CB


Raw METAR
KTPA 221753Z 07006KT 10SM SCT040 SCT140 BKN250 33/21 A3000 RMK AO2 SLP159 T03330206 10333 20256 58014
KTPA 221653Z 07007KT 10SM SCT036 SCT150 BKN250 32/21 A3002 RMK AO2 SLP165 T03170211
KTPA 221553Z VRB05KT 10SM SCT030 SCT120 BKN250 32/22 A3004 RMK AO2 SLP171 T03220217

METAR Board
Radar Display
Forecast Discussion
For situational awareness. Not to be used for flight planning purposes.